sensor_id;sensor_type;location;lat;lon;timestamp;pressure;altitude;pressure_sealevel;temperature;humidity
22755;BME280;11544;42.020;23.094;2023-04-03T00:00:52;96529.41;;;9.30;72.50
22755;BME280;11544;42.020;23.094;2023-04-03T00:03:31;96529.75;;;9.22;71.29
22755;BME280;11544;42.020;23.094;2023-04-03T00:06:03;96524.22;;;9.09;70.89
22755;BME280;11544;42.020;23.094;2023-04-03T00:08:34;96530.91;;;8.71;71.78
22755;BME280;11544;42.020;23.094;2023-04-03T00:11:01;96524.06;;;9.13;70.88
22755;BME280;11544;42.020;23.094;2023-04-03T00:13:31;96534.59;;;8.65;72.41
22755;BME280;11544;42.020;23.094;2023-04-03T00:15:59;96537.22;;;8.64;73.43
22755;BME280;11544;42.020;23.094;2023-04-03T00:18:26;96529.97;;;8.50;75.13
22755;BME280;11544;42.020;23.094;2023-04-03T00:20:56;96534.97;;;9.00;72.94
22755;BME280;11544;42.020;23.094;2023-04-03T00:23:25;96535.84;;;8.99;72.21
22755;BME280;11544;42.020;23.094;2023-04-03T00:25:55;96540.84;;;9.26;71.47
22755;BME280;11544;42.020;23.094;2023-04-03T00:28:22;96536.03;;;8.95;71.68
22755;BME280;11544;42.020;23.094;2023-04-03T00:30:55;96538.50;;;9.20;73.15
22755;BME280;11544;42.020;23.094;2023-04-03T00:33:38;96535.38;;;8.89;73.44
22755;BME280;11544;42.020;23.094;2023-04-03T00:36:47;96533.97;;;8.59;74.81
22755;BME280;11544;42.020;23.094;2023-04-03T00:39:38;96555.28;;;8.45;76.87
22755;BME280;11544;42.020;23.094;2023-04-03T00:42:06;96547.88;;;9.02;75.12
22755;BME280;11544;42.020;23.094;2023-04-03T00:47:00;96545.63;;;8.48;76.56
22755;BME280;11544;42.020;23.094;2023-04-03T00:49:28;96545.44;;;8.30;77.76
22755;BME280;11544;42.020;23.094;2023-04-03T00:51:58;96556.94;;;7.74;78.60
22755;BME280;11544;42.020;23.094;2023-04-03T00:54:26;96550.25;;;8.40;78.07
22755;BME280;11544;42.020;23.094;2023-04-03T00:56:58;96561.34;;;8.20;76.58
22755;BME280;11544;42.020;23.094;2023-04-03T00:59:29;96563.47;;;8.58;75.38
22755;BME280;11544;42.020;23.094;2023-04-03T01:01:57;96565.91;;;8.37;74.70
22755;BME280;11544;42.020;23.094;2023-04-03T01:04:39;96556.47;;;8.11;76.29
22755;BME280;11544;42.020;23.094;2023-04-03T01:07:16;96559.28;;;8.05;77.85
22755;BME280;11544;42.020;23.094;2023-04-03T01:09:45;96559.38;;;8.03;77.29
22755;BME280;11544;42.020;23.094;2023-04-03T01:12:31;96551.41;;;8.08;78.19
22755;BME280;11544;42.020;23.094;2023-04-03T01:15:10;96555.47;;;8.39;76.68
22755;BME280;11544;42.020;23.094;2023-04-03T01:17:52;96547.78;;;8.12;77.05
22755;BME280;11544;42.020;23.094;2023-04-03T01:25:48;96541.13;;;8.05;77.53
22755;BME280;11544;42.020;23.094;2023-04-03T01:28:29;96552.66;;;8.21;77.08
22755;BME280;11544;42.020;23.094;2023-04-03T01:33:35;96547.91;;;8.09;77.66
22755;BME280;11544;42.020;23.094;2023-04-03T01:36:03;96553.59;;;7.95;77.60
22755;BME280;11544;42.020;23.094;2023-04-03T01:38:30;96546.88;;;7.90;79.56
22755;BME280;11544;42.020;23.094;2023-04-03T01:40:57;96549.41;;;7.91;80.19
22755;BME280;11544;42.020;23.094;2023-04-03T01:43:24;96548.09;;;7.54;84.92
22755;BME280;11544;42.020;23.094;2023-04-03T01:45:51;96553.63;;;7.43;87.84
22755;BME280;11544;42.020;23.094;2023-04-03T01:48:21;96543.78;;;7.28;91.20
22755;BME280;11544;42.020;23.094;2023-04-03T01:50:48;96550.47;;;7.60;92.12
22755;BME280;11544;42.020;23.094;2023-04-03T01:53:18;96541.53;;;7.94;91.58
22755;BME280;11544;42.020;23.094;2023-04-03T01:55:45;96535.72;;;8.11;89.40
22755;BME280;11544;42.020;23.094;2023-04-03T01:58:12;96544.50;;;7.58;90.51
22755;BME280;11544;42.020;23.094;2023-04-03T02:00:41;96538.88;;;7.19;93.29
22755;BME280;11544;42.020;23.094;2023-04-03T02:03:08;96541.22;;;7.78;94.13
22755;BME280;11544;42.020;23.094;2023-04-03T02:05:45;96543.47;;;7.88;92.19
22755;BME280;11544;42.020;23.094;2023-04-03T02:08:12;96539.31;;;7.32;92.92
22755;BME280;11544;42.020;23.094;2023-04-03T02:10:39;96538.75;;;7.24;95.22
22755;BME280;11544;42.020;23.094;2023-04-03T02:13:07;96542.00;;;7.30;95.55
22755;BME280;11544;42.020;23.094;2023-04-03T02:15:33;96523.41;;;7.93;89.88
22755;BME280;11544;42.020;23.094;2023-04-03T02:18:00;96528.22;;;7.53;90.83
22755;BME280;11544;42.020;23.094;2023-04-03T02:20:33;96530.38;;;7.91;90.82
22755;BME280;11544;42.020;23.094;2023-04-03T02:23:00;96515.22;;;7.55;90.27
22755;BME280;11544;42.020;23.094;2023-04-03T02:25:28;96519.28;;;7.87;87.63
22755;BME280;11544;42.020;23.094;2023-04-03T02:27:56;96517.69;;;7.58;87.61
22755;BME280;11544;42.020;23.094;2023-04-03T02:30:24;96518.97;;;7.71;86.32
22755;BME280;11544;42.020;23.094;2023-04-03T02:32:54;96522.09;;;7.56;86.93
22755;BME280;11544;42.020;23.094;2023-04-03T02:35:23;96514.72;;;7.43;86.03
22755;BME280;11544;42.020;23.094;2023-04-03T02:37:50;96515.09;;;7.33;86.08
22755;BME280;11544;42.020;23.094;2023-04-03T02:40:18;96504.47;;;7.40;86.59
22755;BME280;11544;42.020;23.094;2023-04-03T02:42:45;96503.09;;;7.80;82.94
22755;BME280;11544;42.020;23.094;2023-04-03T02:45:12;96511.69;;;7.32;84.66
22755;BME280;11544;42.020;23.094;2023-04-03T02:47:39;96505.75;;;7.54;84.22
22755;BME280;11544;42.020;23.094;2023-04-03T02:50:08;96511.66;;;7.06;84.93
22755;BME280;11544;42.020;23.094;2023-04-03T02:52:37;96506.31;;;7.62;85.23
22755;BME280;11544;42.020;23.094;2023-04-03T02:55:06;96504.25;;;7.72;83.81
22755;BME280;11544;42.020;23.094;2023-04-03T02:57:33;96497.53;;;7.41;83.56
22755;BME280;11544;42.020;23.094;2023-04-03T03:00:01;96487.47;;;7.57;84.13
22755;BME280;11544;42.020;23.094;2023-04-03T03:02:31;96493.56;;;7.56;84.59
22755;BME280;11544;42.020;23.094;2023-04-03T03:04:58;96497.47;;;7.68;84.26
22755;BME280;11544;42.020;23.094;2023-04-03T03:07:25;96493.94;;;7.70;83.53
22755;BME280;11544;42.020;23.094;2023-04-03T03:09:53;96490.28;;;7.76;82.11
22755;BME280;11544;42.020;23.094;2023-04-03T03:12:39;96482.63;;;7.96;81.42
22755;BME280;11544;42.020;23.094;2023-04-03T03:15:19;96503.25;;;7.26;84.20
22755;BME280;11544;42.020;23.094;2023-04-03T03:18:14;96500.75;;;6.69;88.48
22755;BME280;11544;42.020;23.094;2023-04-03T03:20:43;96492.88;;;6.72;91.57
22755;BME280;11544;42.020;23.094;2023-04-03T03:23:10;96500.72;;;6.71;91.89
22755;BME280;11544;42.020;23.094;2023-04-03T03:25:40;96507.38;;;7.31;91.61
22755;BME280;11544;42.020;23.094;2023-04-03T03:28:08;96504.75;;;7.33;88.19
22755;BME280;11544;42.020;23.094;2023-04-03T03:30:34;96499.56;;;7.06;88.15
22755;BME280;11544;42.020;23.094;2023-04-03T03:33:02;96487.53;;;7.30;87.14
22755;BME280;11544;42.020;23.094;2023-04-03T03:35:30;96494.47;;;7.03;86.43
22755;BME280;11544;42.020;23.094;2023-04-03T03:38:05;96482.19;;;6.83;88.12
22755;BME280;11544;42.020;23.094;2023-04-03T03:40:43;96485.97;;;6.99;88.31
22755;BME280;11544;42.020;23.094;2023-04-03T03:43:09;96480.72;;;6.74;88.11
22755;BME280;11544;42.020;23.094;2023-04-03T03:45:42;96483.13;;;7.07;88.92
22755;BME280;11544;42.020;23.094;2023-04-03T03:48:19;96486.13;;;6.95;89.91
22755;BME280;11544;42.020;23.094;2023-04-03T03:50:58;96492.03;;;6.98;87.90
22755;BME280;11544;42.020;23.094;2023-04-03T03:53:25;96491.97;;;7.02;86.54
22755;BME280;11544;42.020;23.094;2023-04-03T03:55:52;96486.75;;;6.75;87.90
22755;BME280;11544;42.020;23.094;2023-04-03T03:58:18;96498.13;;;6.43;89.44
22755;BME280;11544;42.020;23.094;2023-04-03T04:00:45;96505.03;;;6.42;91.08
22755;BME280;11544;42.020;23.094;2023-04-03T04:03:12;96506.81;;;6.68;91.91
22755;BME280;11544;42.020;23.094;2023-04-03T04:05:39;96521.53;;;6.08;95.04
22755;BME280;11544;42.020;23.094;2023-04-03T04:08:06;96513.22;;;6.28;94.38
22755;BME280;11544;42.020;23.094;2023-04-03T04:10:34;96514.66;;;6.37;93.86
22755;BME280;11544;42.020;23.094;2023-04-03T04:13:01;96517.69;;;6.79;92.48
22755;BME280;11544;42.020;23.094;2023-04-03T04:15:28;96519.44;;;6.51;93.58
22755;BME280;11544;42.020;23.094;2023-04-03T04:17:55;96529.97;;;6.73;93.50
22755;BME280;11544;42.020;23.094;2023-04-03T04:20:29;96531.34;;;6.56;95.92
22755;BME280;11544;42.020;23.094;2023-04-03T04:23:09;96528.00;;;6.23;98.53
22755;BME280;11544;42.020;23.094;2023-04-03T04:25:38;96534.19;;;6.19;99.30
22755;BME280;11544;42.020;23.094;2023-04-03T04:28:05;96518.09;;;6.94;97.48
22755;BME280;11544;42.020;23.094;2023-04-03T04:30:35;96523.50;;;6.60;97.80
22755;BME280;11544;42.020;23.094;2023-04-03T04:33:28;96529.09;;;6.46;96.69
22755;BME280;11544;42.020;23.094;2023-04-03T04:36:09;96537.88;;;6.68;94.62
22755;BME280;11544;42.020;23.094;2023-04-03T04:38:36;96533.88;;;6.86;92.62
22755;BME280;11544;42.020;23.094;2023-04-03T04:41:06;96538.22;;;6.86;93.25
22755;BME280;11544;42.020;23.094;2023-04-03T04:43:33;96541.38;;;6.95;91.34
22755;BME280;11544;42.020;23.094;2023-04-03T04:46:05;96526.75;;;6.66;91.31
22755;BME280;11544;42.020;23.094;2023-04-03T04:48:34;96523.75;;;7.32;90.30
22755;BME280;11544;42.020;23.094;2023-04-03T04:51:02;96523.75;;;7.07;89.50
22755;BME280;11544;42.020;23.094;2023-04-03T04:53:29;96528.88;;;6.52;91.38
22755;BME280;11544;42.020;23.094;2023-04-03T04:55:56;96523.34;;;7.19;90.73
22755;BME280;11544;42.020;23.094;2023-04-03T04:58:23;96530.13;;;7.23;89.59
22755;BME280;11544;42.020;23.094;2023-04-03T05:00:49;96533.78;;;7.42;87.48
22755;BME280;11544;42.020;23.094;2023-04-03T05:03:20;96535.16;;;7.28;86.95
22755;BME280;11544;42.020;23.094;2023-04-03T05:05:47;96531.31;;;7.39;87.28
22755;BME280;11544;42.020;23.094;2023-04-03T05:08:15;96519.34;;;7.60;85.41
22755;BME280;11544;42.020;23.094;2023-04-03T05:10:45;96523.00;;;7.55;86.72
22755;BME280;11544;42.020;23.094;2023-04-03T05:13:30;96522.13;;;7.79;84.91
22755;BME280;11544;42.020;23.094;2023-04-03T05:16:06;96516.28;;;7.49;86.27
22755;BME280;11544;42.020;23.094;2023-04-03T05:18:33;96506.78;;;7.23;87.40
22755;BME280;11544;42.020;23.094;2023-04-03T05:21:00;96506.00;;;7.21;89.23
22755;BME280;11544;42.020;23.094;2023-04-03T05:23:27;96516.19;;;7.77;85.79
22755;BME280;11544;42.020;23.094;2023-04-03T05:26:04;96516.53;;;7.67;85.25
22755;BME280;11544;42.020;23.094;2023-04-03T05:28:32;96511.00;;;8.24;82.44
22755;BME280;11544;42.020;23.094;2023-04-03T05:30:59;96501.22;;;8.31;81.86
22755;BME280;11544;42.020;23.094;2023-04-03T05:33:26;96503.63;;;8.36;80.14
22755;BME280;11544;42.020;23.094;2023-04-03T05:35:54;96511.34;;;8.15;79.60
22755;BME280;11544;42.020;23.094;2023-04-03T05:38:21;96512.50;;;7.83;81.81
22755;BME280;11544;42.020;23.094;2023-04-03T05:40:48;96513.81;;;7.95;84.83
22755;BME280;11544;42.020;23.094;2023-04-03T05:43:19;96523.38;;;7.44;86.96
22755;BME280;11544;42.020;23.094;2023-04-03T05:45:48;96522.88;;;7.06;89.39
22755;BME280;11544;42.020;23.094;2023-04-03T05:48:15;96522.19;;;7.01;93.39
22755;BME280;11544;42.020;23.094;2023-04-03T05:50:42;96530.97;;;7.49;92.67
22755;BME280;11544;42.020;23.094;2023-04-03T05:53:20;96530.19;;;7.20;93.05
22755;BME280;11544;42.020;23.094;2023-04-03T05:55:48;96516.91;;;7.56;91.58
22755;BME280;11544;42.020;23.094;2023-04-03T05:58:15;96522.59;;;7.42;89.54
22755;BME280;11544;42.020;23.094;2023-04-03T06:00:43;96522.28;;;7.25;91.69
22755;BME280;11544;42.020;23.094;2023-04-03T06:03:10;96520.34;;;7.31;93.30
22755;BME280;11544;42.020;23.094;2023-04-03T06:05:38;96516.09;;;7.79;91.86
22755;BME280;11544;42.020;23.094;2023-04-03T06:08:05;96524.22;;;7.45;92.38
22755;BME280;11544;42.020;23.094;2023-04-03T06:10:32;96522.88;;;7.33;93.44
22755;BME280;11544;42.020;23.094;2023-04-03T06:12:59;96520.53;;;7.25;92.54
22755;BME280;11544;42.020;23.094;2023-04-03T06:15:26;96532.69;;;7.75;89.29
22755;BME280;11544;42.020;23.094;2023-04-03T06:17:54;96532.66;;;7.51;89.82
22755;BME280;11544;42.020;23.094;2023-04-03T06:20:22;96525.13;;;7.69;91.29
22755;BME280;11544;42.020;23.094;2023-04-03T06:22:49;96524.97;;;7.73;90.20
22755;BME280;11544;42.020;23.094;2023-04-03T06:25:17;96521.91;;;8.11;88.50
22755;BME280;11544;42.020;23.094;2023-04-03T06:27:45;96516.44;;;7.93;87.48
22755;BME280;11544;42.020;23.094;2023-04-03T06:30:12;96518.84;;;7.74;89.19
22755;BME280;11544;42.020;23.094;2023-04-03T06:32:39;96526.75;;;8.20;88.13
22755;BME280;11544;42.020;23.094;2023-04-03T06:35:07;96530.19;;;7.97;88.46
22755;BME280;11544;42.020;23.094;2023-04-03T06:37:35;96524.88;;;8.00;90.00
22755;BME280;11544;42.020;23.094;2023-04-03T06:40:02;96524.53;;;8.33;87.58
22755;BME280;11544;42.020;23.094;2023-04-03T06:42:30;96523.38;;;8.18;86.19
22755;BME280;11544;42.020;23.094;2023-04-03T06:44:56;96531.25;;;8.15;87.04
22755;BME280;11544;42.020;23.094;2023-04-03T06:47:24;96526.00;;;7.93;88.79
22755;BME280;11544;42.020;23.094;2023-04-03T06:49:54;96528.59;;;8.16;88.57
22755;BME280;11544;42.020;23.094;2023-04-03T06:52:21;96503.91;;;8.53;87.78
22755;BME280;11544;42.020;23.094;2023-04-03T06:54:48;96482.63;;;8.43;86.21
22755;BME280;11544;42.020;23.094;2023-04-03T06:57:18;96469.94;;;8.58;85.48
22755;BME280;11544;42.020;23.094;2023-04-03T06:59:48;96470.84;;;8.79;84.25
22755;BME280;11544;42.020;23.094;2023-04-03T07:02:15;96472.94;;;9.33;82.30
22755;BME280;11544;42.020;23.094;2023-04-03T07:04:45;96470.38;;;9.32;80.05
22755;BME280;11544;42.020;23.094;2023-04-03T07:07:13;96471.03;;;9.37;79.37
22755;BME280;11544;42.020;23.094;2023-04-03T07:09:40;96456.25;;;9.79;77.93
22755;BME280;11544;42.020;23.094;2023-04-03T07:12:10;96457.84;;;9.21;77.27
22755;BME280;11544;42.020;23.094;2023-04-03T07:14:37;96454.38;;;9.62;76.12
22755;BME280;11544;42.020;23.094;2023-04-03T07:17:05;96447.81;;;9.53;76.46
22755;BME280;11544;42.020;23.094;2023-04-03T07:19:31;96452.03;;;9.76;74.84
22755;BME280;11544;42.020;23.094;2023-04-03T07:21:58;96449.53;;;9.73;74.19
22755;BME280;11544;42.020;23.094;2023-04-03T07:24:25;96444.94;;;10.17;72.73
22755;BME280;11544;42.020;23.094;2023-04-03T07:26:52;96452.09;;;10.33;72.51
22755;BME280;11544;42.020;23.094;2023-04-03T07:29:19;96442.75;;;10.08;71.68
22755;BME280;11544;42.020;23.094;2023-04-03T07:31:48;96436.91;;;10.41;70.04
22755;BME280;11544;42.020;23.094;2023-04-03T07:34:16;96433.53;;;10.39;70.79
22755;BME280;11544;42.020;23.094;2023-04-03T07:36:43;96437.03;;;10.40;71.53
22755;BME280;11544;42.020;23.094;2023-04-03T07:39:09;96428.81;;;10.47;70.61
22755;BME280;11544;42.020;23.094;2023-04-03T07:41:37;96431.69;;;10.03;71.46
22755;BME280;11544;42.020;23.094;2023-04-03T07:44:05;96441.34;;;10.20;72.40
22755;BME280;11544;42.020;23.094;2023-04-03T07:46:32;96425.28;;;10.48;69.61
22755;BME280;11544;42.020;23.094;2023-04-03T07:48:59;96425.25;;;10.31;68.44
22755;BME280;11544;42.020;23.094;2023-04-03T07:51:26;96429.09;;;10.22;69.03
22755;BME280;11544;42.020;23.094;2023-04-03T07:53:55;96424.59;;;10.26;68.63
22755;BME280;11544;42.020;23.094;2023-04-03T07:56:22;96409.81;;;10.45;67.94
22755;BME280;11544;42.020;23.094;2023-04-03T07:58:52;96417.38;;;10.13;69.09
22755;BME280;11544;42.020;23.094;2023-04-03T08:01:20;96414.41;;;10.21;69.68
22755;BME280;11544;42.020;23.094;2023-04-03T08:03:47;96413.13;;;10.49;68.62
22755;BME280;11544;42.020;23.094;2023-04-03T08:06:16;96409.72;;;10.83;66.53
22755;BME280;11544;42.020;23.094;2023-04-03T08:08:51;96407.28;;;10.80;66.53
22755;BME280;11544;42.020;23.094;2023-04-03T08:11:20;96403.84;;;10.60;67.52
22755;BME280;11544;42.020;23.094;2023-04-03T08:13:48;96398.63;;;10.79;67.44
22755;BME280;11544;42.020;23.094;2023-04-03T08:16:20;96387.03;;;11.02;66.96
22755;BME280;11544;42.020;23.094;2023-04-03T08:18:49;96385.88;;;10.91;67.24
22755;BME280;11544;42.020;23.094;2023-04-03T08:21:15;96386.16;;;11.19;66.02
22755;BME280;11544;42.020;23.094;2023-04-03T08:23:42;96376.97;;;11.30;64.85
22755;BME280;11544;42.020;23.094;2023-04-03T08:26:12;96364.81;;;11.46;65.12
22755;BME280;11544;42.020;23.094;2023-04-03T08:28:39;96372.50;;;11.14;66.19
22755;BME280;11544;42.020;23.094;2023-04-03T08:31:10;96372.88;;;11.24;65.45
22755;BME280;11544;42.020;23.094;2023-04-03T08:33:39;96350.88;;;11.30;64.60
22755;BME280;11544;42.020;23.094;2023-04-03T08:36:07;96351.94;;;11.26;65.91
22755;BME280;11544;42.020;23.094;2023-04-03T08:38:34;96341.69;;;11.56;64.79
22755;BME280;11544;42.020;23.094;2023-04-03T08:41:20;96338.84;;;11.27;64.46
22755;BME280;11544;42.020;23.094;2023-04-03T08:44:25;96329.13;;;11.47;64.87
22755;BME280;11544;42.020;23.094;2023-04-03T08:49:53;96323.66;;;11.51;63.94
22755;BME280;11544;42.020;23.094;2023-04-03T08:52:34;96322.91;;;11.65;63.38
22755;BME280;11544;42.020;23.094;2023-04-03T08:55:22;96318.31;;;11.37;64.85
22755;BME280;11544;42.020;23.094;2023-04-03T08:57:59;96322.91;;;11.65;65.62
22755;BME280;11544;42.020;23.094;2023-04-03T09:00:32;96317.69;;;11.65;64.32
22755;BME280;11544;42.020;23.094;2023-04-03T09:03:01;96302.69;;;11.69;64.57
22755;BME280;11544;42.020;23.094;2023-04-03T09:10:53;96285.03;;;11.58;64.48
22755;BME280;11544;42.020;23.094;2023-04-03T09:19:05;96300.41;;;11.47;65.38
22755;BME280;11544;42.020;23.094;2023-04-03T09:21:38;96291.00;;;11.27;65.97
22755;BME280;11544;42.020;23.094;2023-04-03T09:24:12;96292.66;;;11.45;65.54
22755;BME280;11544;42.020;23.094;2023-04-03T09:27:04;96300.81;;;11.55;67.53
22755;BME280;11544;42.020;23.094;2023-04-03T09:29:36;96296.09;;;11.45;67.52
22755;BME280;11544;42.020;23.094;2023-04-03T09:32:31;96288.66;;;11.55;66.29
22755;BME280;11544;42.020;23.094;2023-04-03T09:35:03;96284.50;;;11.51;67.20
22755;BME280;11544;42.020;23.094;2023-04-03T09:37:48;96292.25;;;11.69;67.80
22755;BME280;11544;42.020;23.094;2023-04-03T09:42:54;96301.88;;;11.84;66.56
22755;BME280;11544;42.020;23.094;2023-04-03T09:45:28;96297.31;;;11.72;67.76
22755;BME280;11544;42.020;23.094;2023-04-03T09:53:44;96307.28;;;11.97;69.23
22755;BME280;11544;42.020;23.094;2023-04-03T10:01:34;96287.97;;;12.15;71.10
22755;BME280;11544;42.020;23.094;2023-04-03T10:04:20;96292.69;;;12.08;72.54
22755;BME280;11544;42.020;23.094;2023-04-03T10:06:50;96288.88;;;12.30;72.67
22755;BME280;11544;42.020;23.094;2023-04-03T10:09:32;96289.38;;;12.37;73.37
22755;BME280;11544;42.020;23.094;2023-04-03T10:14:54;96293.19;;;12.15;77.74
22755;BME280;11544;42.020;23.094;2023-04-03T10:20:48;96297.38;;;12.34;79.52
22755;BME280;11544;42.020;23.094;2023-04-03T10:23:20;96289.56;;;12.34;78.47
22755;BME280;11544;42.020;23.094;2023-04-03T10:31:37;96275.50;;;12.20;81.05
22755;BME280;11544;42.020;23.094;2023-04-03T10:34:25;96266.53;;;12.40;85.41
22755;BME280;11544;42.020;23.094;2023-04-03T10:40:01;96261.47;;;12.37;83.09
22755;BME280;11544;42.020;23.094;2023-04-03T10:42:38;96250.19;;;13.10;77.95
22755;BME280;11544;42.020;23.094;2023-04-03T10:48:30;96233.81;;;12.78;79.00
22755;BME280;11544;42.020;23.094;2023-04-03T10:54:00;96231.72;;;12.54;82.32
22755;BME280;11544;42.020;23.094;2023-04-03T10:56:54;96228.78;;;13.03;83.00
22755;BME280;11544;42.020;23.094;2023-04-03T10:59:49;96224.41;;;13.04;84.34
22755;BME280;11544;42.020;23.094;2023-04-03T11:05:02;96219.16;;;12.75;88.37
22755;BME280;11544;42.020;23.094;2023-04-03T11:07:40;96220.78;;;13.06;86.57
22755;BME280;11544;42.020;23.094;2023-04-03T11:10:14;96219.91;;;12.77;87.76
22755;BME280;11544;42.020;23.094;2023-04-03T11:12:58;96224.88;;;12.82;88.95
22755;BME280;11544;42.020;23.094;2023-04-03T11:15:36;96222.44;;;13.22;88.68
22755;BME280;11544;42.020;23.094;2023-04-03T11:18:13;96220.66;;;13.08;90.51
22755;BME280;11544;42.020;23.094;2023-04-03T11:20:47;96218.44;;;13.16;91.77
22755;BME280;11544;42.020;23.094;2023-04-03T11:23:29;96212.19;;;13.04;92.16
22755;BME280;11544;42.020;23.094;2023-04-03T11:26:37;96205.91;;;13.21;91.44
22755;BME280;11544;42.020;23.094;2023-04-03T11:29:14;96203.03;;;12.97;94.23
22755;BME280;11544;42.020;23.094;2023-04-03T11:34:52;96200.28;;;12.56;98.20
22755;BME280;11544;42.020;23.094;2023-04-03T11:37:31;96195.13;;;12.54;99.61
22755;BME280;11544;42.020;23.094;2023-04-03T11:40:07;96196.25;;;12.50;99.94
22755;BME280;11544;42.020;23.094;2023-04-03T11:42:38;96187.94;;;12.43;100.00
22755;BME280;11544;42.020;23.094;2023-04-03T11:47:55;96165.81;;;12.49;91.86
22755;BME280;11544;42.020;23.094;2023-04-03T11:50:44;96152.13;;;12.74;90.66
22755;BME280;11544;42.020;23.094;2023-04-03T12:01:05;96142.13;;;12.52;100.00
22755;BME280;11544;42.020;23.094;2023-04-03T12:04:02;96141.00;;;12.56;100.00
22755;BME280;11544;42.020;23.094;2023-04-03T12:08:59;96135.22;;;12.65;100.00
22755;BME280;11544;42.020;23.094;2023-04-03T12:11:30;96126.78;;;12.89;95.62
22755;BME280;11544;42.020;23.094;2023-04-03T12:24:33;96105.22;;;12.42;100.00
22755;BME280;11544;42.020;23.094;2023-04-03T12:32:55;96096.38;;;12.45;100.00
22755;BME280;11544;42.020;23.094;2023-04-03T12:35:55;96097.03;;;12.34;100.00
22755;BME280;11544;42.020;23.094;2023-04-03T12:39:02;96106.34;;;12.10;100.00
22755;BME280;11544;42.020;23.094;2023-04-03T12:42:00;96098.72;;;11.91;100.00
22755;BME280;11544;42.020;23.094;2023-04-03T12:44:47;96097.25;;;12.01;100.00
22755;BME280;11544;42.020;23.094;2023-04-03T12:49:54;96085.50;;;12.08;100.00
22755;BME280;11544;42.020;23.094;2023-04-03T12:52:30;96078.91;;;12.31;100.00
22755;BME280;11544;42.020;23.094;2023-04-03T12:55:00;96077.38;;;11.98;100.00
22755;BME280;11544;42.020;23.094;2023-04-03T12:57:33;96076.66;;;11.80;100.00
22755;BME280;11544;42.020;23.094;2023-04-03T13:00:28;96067.63;;;11.86;100.00
22755;BME280;11544;42.020;23.094;2023-04-03T13:02:56;96068.06;;;12.08;100.00
22755;BME280;11544;42.020;23.094;2023-04-03T13:05:24;96057.53;;;12.24;100.00
22755;BME280;11544;42.020;23.094;2023-04-03T13:08:02;96056.22;;;12.03;100.00
22755;BME280;11544;42.020;23.094;2023-04-03T13:10:30;96071.41;;;11.96;100.00
22755;BME280;11544;42.020;23.094;2023-04-03T13:13:08;96065.06;;;12.00;100.00
22755;BME280;11544;42.020;23.094;2023-04-03T13:15:44;96060.06;;;11.81;100.00
22755;BME280;11544;42.020;23.094;2023-04-03T13:18:33;96061.09;;;11.79;100.00
22755;BME280;11544;42.020;23.094;2023-04-03T13:21:07;96062.41;;;11.86;100.00
22755;BME280;11544;42.020;23.094;2023-04-03T13:23:38;96062.19;;;11.75;100.00
22755;BME280;11544;42.020;23.094;2023-04-03T13:26:07;96052.50;;;11.77;100.00
22755;BME280;11544;42.020;23.094;2023-04-03T13:28:34;96056.84;;;11.92;100.00
22755;BME280;11544;42.020;23.094;2023-04-03T13:31:06;96057.06;;;12.18;100.00
22755;BME280;11544;42.020;23.094;2023-04-03T13:33:37;96045.50;;;12.36;100.00
22755;BME280;11544;42.020;23.094;2023-04-03T13:36:34;96043.09;;;12.33;100.00
22755;BME280;11544;42.020;23.094;2023-04-03T13:39:24;96041.09;;;11.94;100.00
22755;BME280;11544;42.020;23.094;2023-04-03T13:41:54;96044.78;;;11.59;100.00
22755;BME280;11544;42.020;23.094;2023-04-03T13:46:55;96033.34;;;12.35;100.00
22755;BME280;11544;42.020;23.094;2023-04-03T13:49:34;96029.91;;;12.35;100.00
22755;BME280;11544;42.020;23.094;2023-04-03T13:52:32;96014.03;;;12.23;100.00
22755;BME280;11544;42.020;23.094;2023-04-03T13:55:25;96009.09;;;12.04;100.00
22755;BME280;11544;42.020;23.094;2023-04-03T13:57:57;96016.38;;;11.99;100.00
22755;BME280;11544;42.020;23.094;2023-04-03T14:00:35;96017.03;;;11.58;100.00
22755;BME280;11544;42.020;23.094;2023-04-03T14:03:13;96022.91;;;11.62;100.00
22755;BME280;11544;42.020;23.094;2023-04-03T14:05:46;96020.84;;;11.53;100.00
22755;BME280;11544;42.020;23.094;2023-04-03T14:08:14;96028.06;;;11.78;100.00
22755;BME280;11544;42.020;23.094;2023-04-03T14:10:41;96026.88;;;11.83;100.00
22755;BME280;11544;42.020;23.094;2023-04-03T14:13:14;96028.91;;;11.78;100.00
22755;BME280;11544;42.020;23.094;2023-04-03T14:15:47;96029.16;;;11.74;100.00
22755;BME280;11544;42.020;23.094;2023-04-03T14:18:18;96013.28;;;11.48;100.00
22755;BME280;11544;42.020;23.094;2023-04-03T14:20:48;96011.88;;;11.87;100.00
22755;BME280;11544;42.020;23.094;2023-04-03T14:23:15;96019.63;;;11.58;100.00
22755;BME280;11544;42.020;23.094;2023-04-03T14:25:43;96018.50;;;11.48;100.00
22755;BME280;11544;42.020;23.094;2023-04-03T14:28:19;96009.47;;;11.54;100.00
22755;BME280;11544;42.020;23.094;2023-04-03T14:30:51;95989.00;;;11.76;100.00
22755;BME280;11544;42.020;23.094;2023-04-03T14:33:21;95993.78;;;11.39;100.00
22755;BME280;11544;42.020;23.094;2023-04-03T14:35:48;95999.63;;;11.43;100.00
22755;BME280;11544;42.020;23.094;2023-04-03T14:38:29;95998.63;;;11.45;100.00
22755;BME280;11544;42.020;23.094;2023-04-03T14:40:58;95990.50;;;11.06;100.00
22755;BME280;11544;42.020;23.094;2023-04-03T14:43:42;95984.97;;;11.26;100.00
22755;BME280;11544;42.020;23.094;2023-04-03T14:46:13;95993.63;;;11.57;100.00
22755;BME280;11544;42.020;23.094;2023-04-03T14:48:41;95983.69;;;11.78;100.00
22755;BME280;11544;42.020;23.094;2023-04-03T14:51:14;95976.13;;;11.73;100.00
22755;BME280;11544;42.020;23.094;2023-04-03T14:54:09;95981.41;;;11.57;100.00
22755;BME280;11544;42.020;23.094;2023-04-03T14:56:38;95970.41;;;11.52;100.00
22755;BME280;11544;42.020;23.094;2023-04-03T14:59:14;95968.25;;;11.44;100.00